Time;durP1;ratioP1;P1;durP2;ratioP2;P2;SDS_P1;SDS_P2;PMS_P1;PMS_P2;Temp;Humidity;BMP_temperature;BMP_pressure;BME280_temperature;BME280_humidity;BME280_pressure;Samples;Min_cycle;Max_cycle;Signal;HPM_P1;HPM_P2
2023/06/29 00:00:21;;;;;;;31.20;24.88;;;18.60;99.90;;;;;;6184919;23;20012;-32
2023/06/29 00:02:47;;;;;;;30.42;24.58;;;18.60;99.90;;;;;;6211887;23;20312;-31
2023/06/29 00:05:13;;;;;;;30.38;24.35;;;18.60;99.90;;;;;;6211693;23;20008;-31
2023/06/29 00:07:39;;;;;;;30.77;26.13;;;18.60;99.90;;;;;;6213383;23;20506;-31
2023/06/29 00:10:07;;;;;;;29.27;26.27;;;18.60;99.90;;;;;;6213903;23;20009;-31
2023/06/29 00:12:33;;;;;;;29.58;24.95;;;18.60;99.90;;;;;;6213815;23;20004;-31
2023/06/29 00:14:59;;;;;;;29.02;24.90;;;18.60;99.90;;;;;;6213468;23;20087;-31
2023/06/29 00:17:25;;;;;;;29.40;25.60;;;18.60;99.90;;;;;;6213234;23;20019;-31
2023/06/29 00:19:51;;;;;;;32.88;26.45;;;18.60;99.90;;;;;;6213512;23;20266;-31
2023/06/29 00:22:18;;;;;;;31.25;26.55;;;18.60;99.90;;;;;;6213371;23;20008;-32
2023/06/29 00:24:44;;;;;;;29.08;25.27;;;18.60;99.90;;;;;;6214019;23;20451;-32
2023/06/29 00:27:14;;;;;;;33.58;26.50;;;18.60;99.90;;;;;;6213687;23;20067;-31
2023/06/29 00:29:43;;;;;;;31.27;26.15;;;18.50;99.90;;;;;;6213933;23;20011;-31
2023/06/29 00:32:10;;;;;;;31.67;25.23;;;18.60;99.90;;;;;;6212836;23;20383;-31
2023/06/29 00:34:36;;;;;;;35.47;27.05;;;18.50;99.90;;;;;;6214140;23;20017;-31
2023/06/29 00:37:02;;;;;;;36.78;28.40;;;18.50;99.90;;;;;;6213368;23;20019;-31
2023/06/29 00:39:27;;;;;;;30.52;27.05;;;18.50;99.90;;;;;;6213729;23;20047;-31
2023/06/29 00:41:53;;;;;;;34.22;27.40;;;18.50;99.90;;;;;;6213212;23;20012;-31
2023/06/29 00:44:19;;;;;;;33.30;27.65;;;18.50;99.90;;;;;;6186889;23;20017;-32
2023/06/29 00:46:46;;;;;;;32.92;29.25;;;18.50;99.90;;;;;;6213693;23;20704;-31
2023/06/29 00:49:12;;;;;;;34.65;29.33;;;18.40;99.90;;;;;;6186369;23;20012;-30
2023/06/29 00:51:38;;;;;;;36.92;28.42;;;18.40;99.90;;;;;;6213484;23;20349;-31
2023/06/29 00:54:04;;;;;;;32.33;26.08;;;18.40;99.90;;;;;;6213302;23;20015;-32
2023/06/29 00:56:34;;;;;;;32.78;27.05;;;18.50;99.90;;;;;;6213180;23;20340;-31
2023/06/29 00:59:00;;;;;;;33.47;27.83;;;18.50;99.90;;;;;;6212820;23;20032;-31
2023/06/29 01:01:27;;;;;;;31.20;28.00;;;18.50;99.90;;;;;;6212722;23;20060;-30
2023/06/29 01:03:56;;;;;;;31.67;26.58;;;18.50;99.90;;;;;;6212740;23;20063;-31
2023/06/29 01:06:29;;;;;;;33.95;27.35;;;18.50;99.90;;;;;;6212405;23;20013;-31
2023/06/29 01:09:00;;;;;;;32.00;28.58;;;18.50;99.90;;;;;;6213165;23;20486;-31
2023/06/29 01:11:26;;;;;;;31.05;27.20;;;18.50;99.90;;;;;;6212869;23;20004;-31
2023/06/29 01:13:53;;;;;;;28.58;25.63;;;18.50;99.90;;;;;;6213001;23;20519;-32
2023/06/29 01:16:21;;;;;;;32.65;27.52;;;18.50;99.90;;;;;;6212473;23;20475;-31
2023/06/29 01:18:47;;;;;;;35.28;28.17;;;18.50;99.90;;;;;;6212540;23;20071;-32
2023/06/29 01:21:14;;;;;;;33.55;28.65;;;18.50;99.90;;;;;;6212470;23;20071;-31
2023/06/29 01:23:41;;;;;;;32.50;27.90;;;18.40;99.90;;;;;;6212716;23;20464;-32
2023/06/29 01:26:08;;;;;;;31.75;26.55;;;18.40;99.90;;;;;;6212234;23;20066;-31
2023/06/29 01:28:38;;;;;;;30.20;26.48;;;18.40;99.90;;;;;;6212649;23;20122;-32
2023/06/29 01:31:04;;;;;;;29.73;26.23;;;18.40;99.90;;;;;;6212689;23;20012;-31
2023/06/29 01:33:31;;;;;;;29.98;26.73;;;18.40;99.90;;;;;;6212682;23;20067;-31
2023/06/29 01:36:13;;;;;;;34.60;27.23;;;18.40;99.90;;;;;;6212753;23;20514;-31
2023/06/29 01:38:47;;;;;;;28.90;25.85;;;18.40;99.90;;;;;;6212722;23;20458;-31
2023/06/29 01:41:16;;;;;;;30.20;26.27;;;18.30;99.90;;;;;;6212696;23;20013;-31
2023/06/29 01:43:42;;;;;;;30.77;27.10;;;18.40;99.90;;;;;;6185461;23;20017;-31
2023/06/29 01:46:09;;;;;;;32.88;28.88;;;18.30;99.90;;;;;;6212843;23;20039;-31
2023/06/29 01:48:36;;;;;;;30.45;26.38;;;18.30;99.90;;;;;;6212346;23;20043;-31
2023/06/29 01:51:02;;;;;;;31.77;25.73;;;18.30;99.90;;;;;;6212381;23;20005;-31
2023/06/29 01:53:28;;;;;;;33.13;27.02;;;18.40;99.90;;;;;;6212554;23;20494;-31
2023/06/29 01:55:54;;;;;;;30.20;27.02;;;18.30;99.90;;;;;;6212264;23;20009;-31
2023/06/29 01:58:19;;;;;;;31.15;26.52;;;18.30;99.90;;;;;;6212579;23;20366;-31
2023/06/29 02:00:45;;;;;;;33.35;26.38;;;18.30;99.90;;;;;;6185275;23;20479;-31
2023/06/29 02:03:11;;;;;;;28.48;25.05;;;18.30;99.90;;;;;;6212281;23;20023;-31
2023/06/29 02:05:37;;;;;;;29.98;26.75;;;18.30;99.90;;;;;;6212385;23;20009;-31
2023/06/29 02:08:03;;;;;;;32.15;27.55;;;18.30;99.90;;;;;;6212696;23;20426;-30
2023/06/29 02:10:28;;;;;;;33.22;27.02;;;18.20;99.90;;;;;;6212432;23;20012;-31
2023/06/29 02:12:54;;;;;;;29.35;26.15;;;18.20;99.90;;;;;;6212736;23;20084;-31
2023/06/29 02:15:19;;;;;;;32.40;25.33;;;18.20;99.90;;;;;;6212029;23;20013;-31
2023/06/29 02:17:45;;;;;;;31.63;25.98;;;18.20;99.90;;;;;;6211834;23;20017;-34
2023/06/29 02:20:11;;;;;;;31.80;25.60;;;18.20;99.90;;;;;;6211507;23;20052;-31
2023/06/29 02:22:37;;;;;;;32.28;26.83;;;18.20;99.90;;;;;;6211193;23;20326;-31
2023/06/29 02:25:03;;;;;;;30.08;26.95;;;18.20;99.90;;;;;;6211455;23;20467;-31
2023/06/29 02:27:28;;;;;;;33.30;25.77;;;18.20;99.90;;;;;;6211331;23;20055;-31
2023/06/29 02:29:54;;;;;;;29.80;26.60;;;18.20;99.90;;;;;;6211631;23;20470;-31
2023/06/29 02:32:19;;;;;;;28.08;25.10;;;18.20;99.90;;;;;;6211373;23;20005;-31
2023/06/29 02:34:45;;;;;;;29.40;25.80;;;18.20;99.90;;;;;;6211539;23;20439;-31
2023/06/29 02:37:11;;;;;;;29.17;25.42;;;18.20;99.90;;;;;;6211875;23;20024;-31
2023/06/29 02:39:36;;;;;;;28.75;25.65;;;18.20;99.90;;;;;;6211542;23;20130;-31
2023/06/29 02:42:02;;;;;;;28.90;25.23;;;18.20;99.90;;;;;;6211397;23;20012;-30
2023/06/29 02:44:28;;;;;;;34.17;27.98;;;18.20;99.90;;;;;;6211167;23;20370;-32
2023/06/29 02:46:53;;;;;;;29.17;25.33;;;18.20;99.90;;;;;;6211107;23;20420;-31
2023/06/29 02:49:19;;;;;;;31.58;26.02;;;18.20;99.90;;;;;;6211037;23;20070;-31
2023/06/29 02:51:44;;;;;;;31.02;26.23;;;18.20;99.90;;;;;;6211106;23;20448;-30
2023/06/29 02:54:10;;;;;;;28.30;25.30;;;18.20;99.90;;;;;;6211390;23;20011;-31
2023/06/29 02:56:36;;;;;;;28.45;24.65;;;18.20;99.90;;;;;;6211191;23;20012;-31
2023/06/29 02:59:01;;;;;;;29.50;26.35;;;18.30;99.90;;;;;;6211369;23;20019;-32
2023/06/29 03:01:27;;;;;;;31.70;27.30;;;18.30;99.90;;;;;;6211120;23;20008;-31
2023/06/29 03:03:53;;;;;;;29.00;25.73;;;18.20;99.90;;;;;;6211252;23;20074;-30
2023/06/29 03:06:19;;;;;;;29.55;25.70;;;18.20;99.90;;;;;;6210731;23;20106;-32
2023/06/29 03:08:45;;;;;;;30.13;26.20;;;18.30;99.90;;;;;;6210958;23;20440;-32
2023/06/29 03:11:11;;;;;;;30.83;25.73;;;18.30;99.90;;;;;;6211285;23;20009;-31
2023/06/29 03:13:36;;;;;;;32.55;24.95;;;18.30;99.90;;;;;;6211031;23;20013;-31
2023/06/29 03:16:02;;;;;;;30.75;24.50;;;18.30;99.90;;;;;;6210258;23;20016;-32
2023/06/29 03:18:28;;;;;;;29.77;26.58;;;18.30;99.90;;;;;;6209413;23;20020;-31
2023/06/29 03:20:54;;;;;;;28.23;25.27;;;18.20;99.90;;;;;;6210527;23;20008;-31
2023/06/29 03:23:19;;;;;;;31.35;26.58;;;18.20;99.90;;;;;;6182844;23;20063;-30
2023/06/29 03:25:45;;;;;;;29.20;25.48;;;18.30;99.90;;;;;;6210187;23;20354;-31
2023/06/29 03:28:10;;;;;;;30.98;25.25;;;18.30;99.90;;;;;;6209772;23;20004;-31
2023/06/29 03:30:36;;;;;;;30.50;26.40;;;18.30;99.90;;;;;;6183686;23;20044;-31
2023/06/29 03:33:02;;;;;;;29.45;25.92;;;18.30;99.90;;;;;;6210599;23;20395;-36
2023/06/29 03:35:27;;;;;;;31.27;25.77;;;18.30;99.90;;;;;;6210218;23;20095;-30
2023/06/29 03:37:53;;;;;;;32.60;27.60;;;18.40;99.90;;;;;;6210406;23;20021;-31
2023/06/29 03:40:19;;;;;;;27.80;24.52;;;18.40;99.90;;;;;;6211433;23;20016;-32
2023/06/29 03:42:44;;;;;;;28.48;25.50;;;18.40;99.90;;;;;;6212199;23;20328;-31
2023/06/29 03:45:10;;;;;;;29.92;26.27;;;18.40;99.90;;;;;;6212228;23;20088;-31
2023/06/29 03:47:36;;;;;;;30.30;25.65;;;18.40;99.90;;;;;;6212413;23;20013;-31
2023/06/29 03:50:01;;;;;;;38.72;28.10;;;18.40;99.90;;;;;;6212391;23;20005;-32
2023/06/29 03:52:27;;;;;;;31.75;26.83;;;18.40;99.90;;;;;;6212184;23;20313;-31
2023/06/29 03:54:53;;;;;;;31.55;28.13;;;18.50;99.90;;;;;;6212832;23;20009;-31
2023/06/29 03:57:18;;;;;;;32.15;28.75;;;18.50;99.90;;;;;;6211937;23;20043;-32
2023/06/29 03:59:44;;;;;;;32.28;28.70;;;18.50;99.90;;;;;;6212719;23;20013;-31
2023/06/29 04:02:10;;;;;;;35.97;28.40;;;18.50;99.90;;;;;;6185290;23;20283;-30
2023/06/29 04:04:35;;;;;;;35.38;28.40;;;18.50;99.90;;;;;;6212421;23;20013;-32
2023/06/29 04:07:01;;;;;;;36.08;29.05;;;18.50;99.90;;;;;;6211934;23;20051;-31
2023/06/29 04:09:27;;;;;;;36.08;28.67;;;18.60;99.90;;;;;;6183393;23;20463;-36
2023/06/29 04:11:52;;;;;;;32.85;28.55;;;18.60;99.90;;;;;;6183743;23;20009;-32
2023/06/29 04:14:18;;;;;;;36.13;29.23;;;18.60;99.90;;;;;;6186905;23;20194;-32
2023/06/29 04:16:43;;;;;;;35.40;28.55;;;18.60;99.90;;;;;;6186096;23;20017;-32
2023/06/29 04:19:09;;;;;;;33.60;29.92;;;18.70;99.90;;;;;;6212918;23;20040;-31
2023/06/29 04:21:35;;;;;;;36.55;29.02;;;18.70;99.90;;;;;;6212701;23;20016;-30
2023/06/29 04:24:01;;;;;;;34.75;29.42;;;18.70;99.90;;;;;;6212968;23;20412;-31
2023/06/29 04:26:29;;;;;;;39.45;29.17;;;18.80;99.90;;;;;;6213397;23;20008;-31
2023/06/29 04:29:05;;;;;;;36.30;30.20;;;18.80;99.90;;;;;;6213370;23;20436;-31
2023/06/29 04:31:32;;;;;;;36.65;29.88;;;18.80;99.90;;;;;;6212973;23;20369;-31
2023/06/29 04:33:58;;;;;;;35.15;29.67;;;18.90;99.90;;;;;;6213077;23;20019;-31
2023/06/29 04:36:24;;;;;;;35.30;30.33;;;18.90;99.90;;;;;;6213071;23;20016;-31
2023/06/29 04:38:50;;;;;;;37.28;29.13;;;19.00;99.90;;;;;;6212799;23;20039;-32
2023/06/29 04:41:16;;;;;;;35.95;29.83;;;19.10;99.90;;;;;;6213247;23;20028;-32
2023/06/29 04:43:42;;;;;;;33.13;28.25;;;19.20;99.90;;;;;;6213485;23;20340;-32
2023/06/29 04:46:08;;;;;;;33.90;29.00;;;19.30;99.90;;;;;;6186283;23;20013;-31
2023/06/29 04:48:37;;;;;;;30.77;27.55;;;19.40;99.90;;;;;;6212592;23;20016;-30
2023/06/29 04:51:06;;;;;;;36.22;28.77;;;19.50;99.90;;;;;;6212815;23;20016;-31
2023/06/29 04:53:35;;;;;;;31.73;28.30;;;19.60;99.90;;;;;;6212420;23;20332;-31
2023/06/29 04:56:01;;;;;;;34.45;28.27;;;19.70;99.90;;;;;;6212812;23;20079;-31
2023/06/29 04:58:27;;;;;;;34.35;28.25;;;19.80;99.90;;;;;;6211975;23;20016;-32
2023/06/29 05:00:56;;;;;;;36.25;28.08;;;19.80;99.90;;;;;;6212618;23;20012;-32
2023/06/29 05:03:23;;;;;;;35.47;29.73;;;19.80;99.90;;;;;;6212196;23;20004;-32
2023/06/29 05:05:49;;;;;;;33.30;28.23;;;19.90;99.90;;;;;;6212498;23;20024;-32
2023/06/29 05:08:14;;;;;;;34.60;27.70;;;20.00;99.90;;;;;;6211938;23;20009;-32
2023/06/29 05:10:40;;;;;;;32.30;28.42;;;20.00;99.90;;;;;;6212589;23;20012;-31
2023/06/29 05:13:06;;;;;;;33.33;28.35;;;20.10;99.90;;;;;;6212248;23;20080;-31
2023/06/29 05:15:32;;;;;;;35.78;28.40;;;20.10;99.90;;;;;;6212196;23;20455;-32
2023/06/29 05:17:57;;;;;;;36.53;29.30;;;20.10;99.90;;;;;;6212263;23;20024;-32
2023/06/29 05:20:23;;;;;;;34.40;28.50;;;20.20;99.90;;;;;;6211957;23;20020;-32
2023/06/29 05:22:49;;;;;;;35.33;28.63;;;20.20;99.90;;;;;;6212117;23;20068;-32
2023/06/29 05:25:14;;;;;;;36.97;30.25;;;20.20;99.90;;;;;;6184958;23;20428;-32
2023/06/29 05:27:41;;;;;;;37.03;31.05;;;20.30;99.90;;;;;;6212053;23;20023;-32
2023/06/29 05:30:08;;;;;;;37.88;31.00;;;20.30;99.90;;;;;;6212021;23;20008;-31
2023/06/29 05:32:35;;;;;;;36.42;28.95;;;20.40;99.90;;;;;;6212005;23;20108;-31
2023/06/29 05:35:01;;;;;;;40.42;31.73;;;20.40;99.90;;;;;;6211924;23;20013;-31
2023/06/29 05:37:29;;;;;;;37.90;30.80;;;20.50;99.90;;;;;;6211961;23;20016;-31
2023/06/29 05:39:56;;;;;;;36.75;30.20;;;20.50;99.90;;;;;;6185450;23;20086;-32
2023/06/29 05:42:22;;;;;;;38.92;30.10;;;20.60;99.90;;;;;;6185005;23;20020;-32
2023/06/29 05:44:48;;;;;;;39.53;31.63;;;20.70;99.90;;;;;;6211668;23;20392;-31
2023/06/29 05:47:14;;;;;;;38.90;31.17;;;20.70;99.90;;;;;;6207832;23;20012;-32
2023/06/29 05:49:39;;;;;;;38.17;32.30;;;20.70;99.90;;;;;;6206895;23;20015;-32
2023/06/29 05:52:05;;;;;;;38.33;31.65;;;20.80;99.90;;;;;;6209312;23;20440;-30
2023/06/29 05:54:31;;;;;;;37.60;31.67;;;20.80;99.90;;;;;;6207216;23;20735;-32
2023/06/29 05:56:57;;;;;;;38.70;31.00;;;20.80;99.90;;;;;;6209099;23;20059;-31
2023/06/29 05:59:23;;;;;;;38.33;30.48;;;20.80;99.90;;;;;;6209504;23;20016;-32
2023/06/29 06:01:52;;;;;;;36.55;31.67;;;20.80;99.90;;;;;;6210640;23;20024;-32
2023/06/29 06:04:17;;;;;;;39.72;30.70;;;20.90;99.90;;;;;;6211791;23;20008;-31
2023/06/29 06:06:43;;;;;;;36.15;30.25;;;20.90;99.90;;;;;;6212157;23;20009;-32
2023/06/29 06:09:09;;;;;;;37.47;30.23;;;21.00;99.90;;;;;;6212127;23;20017;-32
2023/06/29 06:11:35;;;;;;;35.83;30.42;;;21.10;99.90;;;;;;6212038;23;20012;-31
2023/06/29 06:14:01;;;;;;;37.53;30.73;;;21.10;99.90;;;;;;6210927;23;20013;-32
2023/06/29 06:16:27;;;;;;;40.70;31.50;;;21.10;99.90;;;;;;6211589;23;20376;-32
2023/06/29 06:18:52;;;;;;;42.72;33.45;;;21.10;99.90;;;;;;6211178;23;20009;-31
2023/06/29 06:21:23;;;;;;;40.45;33.30;;;21.10;99.90;;;;;;6212064;23;20087;-31
2023/06/29 06:23:49;;;;;;;39.05;32.70;;;21.10;99.90;;;;;;6211665;23;20019;-31
2023/06/29 06:26:15;;;;;;;39.45;33.25;;;21.10;99.90;;;;;;6184815;23;20017;-32
2023/06/29 06:28:40;;;;;;;39.45;33.55;;;21.20;99.90;;;;;;6211810;23;20333;-31
2023/06/29 06:31:06;;;;;;;40.22;33.30;;;21.20;99.90;;;;;;6211538;23;20506;-32
2023/06/29 06:33:32;;;;;;;45.30;33.13;;;21.20;99.90;;;;;;6212076;23;20019;-32
2023/06/29 06:35:59;;;;;;;39.00;31.98;;;21.20;99.90;;;;;;6211641;23;20620;-31
2023/06/29 06:38:25;;;;;;;39.88;32.50;;;21.20;99.90;;;;;;6211567;23;20013;-32
2023/06/29 06:40:53;;;;;;;44.15;32.83;;;21.20;99.90;;;;;;6209073;23;20028;-32
2023/06/29 06:43:19;;;;;;;39.95;31.50;;;21.20;99.90;;;;;;6209852;23;20017;-32
2023/06/29 06:45:45;;;;;;;39.33;32.17;;;21.30;99.90;;;;;;6208451;23;20058;-32
2023/06/29 06:48:10;;;;;;;35.80;31.50;;;21.30;99.90;;;;;;6182614;23;20075;-32
2023/06/29 06:50:36;;;;;;;41.50;32.35;;;21.30;99.90;;;;;;6209368;23;20013;-32
2023/06/29 06:53:02;;;;;;;38.78;30.75;;;21.30;99.90;;;;;;6208844;23;20080;-32
2023/06/29 06:55:30;;;;;;;36.63;30.88;;;21.30;99.90;;;;;;6209051;23;20016;-32
2023/06/29 06:57:56;;;;;;;37.58;29.38;;;21.30;99.90;;;;;;6206930;23;20012;-33
2023/06/29 07:00:22;;;;;;;35.95;31.27;;;21.30;99.90;;;;;;6209557;23;20020;-33
2023/06/29 07:02:48;;;;;;;36.83;30.23;;;21.30;99.90;;;;;;6208276;23;20476;-32
2023/06/29 07:05:14;;;;;;;36.20;30.50;;;21.40;99.90;;;;;;6209308;23;20017;-32
2023/06/29 07:07:40;;;;;;;36.67;31.23;;;21.40;99.90;;;;;;6209649;23;20039;-32
2023/06/29 07:10:07;;;;;;;37.50;31.50;;;21.40;99.90;;;;;;6181744;23;20440;-32
2023/06/29 07:12:32;;;;;;;34.20;30.30;;;21.40;99.90;;;;;;6208907;23;20310;-33
2023/06/29 07:14:58;;;;;;;41.63;32.03;;;21.50;99.90;;;;;;6183312;23;20028;-32
2023/06/29 07:17:23;;;;;;;39.03;30.05;;;21.50;99.90;;;;;;6211405;23;20471;-33
2023/06/29 07:19:49;;;;;;;38.13;29.83;;;21.60;99.90;;;;;;6211284;23;20012;-32
2023/06/29 07:22:15;;;;;;;36.83;30.15;;;21.80;99.90;;;;;;6182615;23;20368;-33
2023/06/29 07:24:40;;;;;;;37.78;29.85;;;21.90;99.90;;;;;;6210973;23;20059;-32
2023/06/29 07:27:06;;;;;;;35.75;27.75;;;22.00;99.90;;;;;;6184795;23;20063;-33
2023/06/29 07:29:33;;;;;;;31.77;28.38;;;22.00;99.90;;;;;;6211217;23;20103;-33
2023/06/29 07:31:58;;;;;;;38.30;30.38;;;22.20;99.90;;;;;;6210204;23;20059;-32
2023/06/29 07:34:24;;;;;;;32.40;28.98;;;22.20;99.90;;;;;;6211269;23;20008;-32
2023/06/29 07:36:51;;;;;;;33.95;28.63;;;22.30;99.90;;;;;;6210360;23;20095;-32
2023/06/29 07:39:17;;;;;;;35.90;29.10;;;22.30;99.90;;;;;;6211331;23;20028;-33
2023/06/29 07:41:43;;;;;;;36.97;29.83;;;22.40;99.90;;;;;;6210174;23;20012;-33
2023/06/29 07:44:09;;;;;;;35.97;28.48;;;22.50;99.90;;;;;;6211543;23;20012;-33
2023/06/29 07:46:34;;;;;;;33.28;27.63;;;22.60;99.90;;;;;;6210042;23;20084;-32
2023/06/29 07:49:00;;;;;;;34.17;28.48;;;22.60;99.90;;;;;;6184613;23;20431;-33
2023/06/29 07:51:32;;;;;;;33.58;29.10;;;22.70;99.90;;;;;;6211205;23;20166;-33
2023/06/29 07:53:58;;;;;;;33.67;28.00;;;22.70;99.90;;;;;;6183895;23;20086;-33
2023/06/29 07:56:24;;;;;;;32.17;27.67;;;22.70;99.90;;;;;;6210943;23;20012;-33
2023/06/29 07:58:49;;;;;;;32.15;27.35;;;22.80;99.90;;;;;;6210826;23;20090;-33
2023/06/29 08:01:17;;;;;;;33.33;27.25;;;22.80;99.90;;;;;;6210764;23;20016;-33
2023/06/29 08:03:44;;;;;;;34.25;27.00;;;22.90;99.90;;;;;;6208291;23;20016;-32
2023/06/29 08:06:10;;;;;;;32.30;27.45;;;22.90;99.90;;;;;;6211066;23;20012;-33
2023/06/29 08:08:36;;;;;;;40.95;29.13;;;23.00;99.90;;;;;;6211081;23;20086;-33
2023/06/29 08:11:02;;;;;;;35.55;27.30;;;23.00;99.90;;;;;;6210864;23;20008;-32
2023/06/29 08:13:28;;;;;;;31.85;26.38;;;23.10;99.90;;;;;;6211387;23;20011;-33
2023/06/29 08:15:53;;;;;;;37.00;28.40;;;23.20;99.90;;;;;;6211760;23;20055;-32
2023/06/29 08:18:20;;;;;;;32.53;26.73;;;23.20;99.90;;;;;;6209496;23;20020;-32
2023/06/29 08:20:48;;;;;;;33.95;27.35;;;23.20;99.90;;;;;;6158801;23;20016;-32
2023/06/29 08:23:14;;;;;;;38.08;28.20;;;23.20;99.90;;;;;;6159738;23;20009;-32
2023/06/29 08:25:40;;;;;;;36.78;27.42;;;23.20;99.90;;;;;;6211147;23;20022;-32
2023/06/29 08:28:06;;;;;;;35.05;27.48;;;23.30;99.90;;;;;;6212593;23;20048;-32
2023/06/29 08:30:33;;;;;;;38.25;26.63;;;23.40;99.90;;;;;;6213584;23;20040;-32
2023/06/29 08:32:58;;;;;;;31.58;25.15;;;23.40;99.90;;;;;;6213432;23;20039;-33
2023/06/29 08:35:24;;;;;;;33.15;25.25;;;23.40;99.90;;;;;;6213310;23;20020;-32
2023/06/29 08:37:50;;;;;;;31.13;24.20;;;23.40;99.90;;;;;;6186038;23;20020;-32
2023/06/29 08:40:21;;;;;;;31.27;23.95;;;23.50;99.90;;;;;;6213163;23;20091;-37
2023/06/29 08:42:47;;;;;;;28.15;24.42;;;23.60;99.90;;;;;;6212423;23;20012;-32
2023/06/29 08:45:13;;;;;;;28.60;25.50;;;23.60;99.90;;;;;;6185953;23;20110;-32
2023/06/29 08:47:40;;;;;;;28.92;24.10;;;23.70;99.90;;;;;;6213137;23;20016;-32
2023/06/29 08:50:09;;;;;;;28.90;24.90;;;23.70;99.90;;;;;;6212682;23;20047;-32
2023/06/29 08:52:35;;;;;;;28.35;22.85;;;23.80;99.90;;;;;;6212833;23;20013;-33
2023/06/29 08:55:05;;;;;;;28.58;23.15;;;24.00;99.90;;;;;;6186752;23;20009;-32
2023/06/29 08:57:32;;;;;;;27.85;23.02;;;24.00;99.90;;;;;;6213519;23;20062;-32
2023/06/29 09:00:02;;;;;;;29.90;23.63;;;24.10;99.90;;;;;;6213802;23;20298;-33
2023/06/29 09:02:28;;;;;;;32.58;24.25;;;24.10;99.90;;;;;;6214170;23;20042;-32
2023/06/29 09:04:55;;;;;;;31.88;24.65;;;24.00;99.90;;;;;;6214079;23;20039;-33
2023/06/29 09:07:20;;;;;;;30.77;24.08;;;24.00;99.90;;;;;;6213893;23;20048;-33
2023/06/29 09:09:46;;;;;;;29.73;24.13;;;24.00;99.90;;;;;;6213318;23;20016;-32
2023/06/29 09:12:12;;;;;;;29.42;24.25;;;24.00;99.90;;;;;;6213135;23;20066;-33
2023/06/29 09:14:44;;;;;;;31.58;23.85;;;24.10;99.90;;;;;;6213623;23;20015;-33
2023/06/29 09:17:17;;;;;;;35.42;25.23;;;24.10;99.90;;;;;;6213158;23;20124;-33
2023/06/29 09:19:56;;;;;;;35.45;24.38;;;24.00;99.90;;;;;;6213962;23;20016;-32
2023/06/29 09:22:26;;;;;;;35.70;25.52;;;24.00;99.90;;;;;;6212709;23;20080;-32
2023/06/29 09:24:57;;;;;;;37.72;25.08;;;23.80;99.90;;;;;;6213457;23;20045;-33
2023/06/29 09:27:23;;;;;;;32.15;23.00;;;23.80;99.90;;;;;;6212468;23;20499;-33
2023/06/29 09:29:53;;;;;;;33.78;25.13;;;23.80;99.90;;;;;;6213240;23;20082;-33
2023/06/29 09:32:19;;;;;;;34.10;24.13;;;23.80;99.90;;;;;;6212772;23;20008;-33
2023/06/29 09:34:46;;;;;;;31.63;23.00;;;23.80;99.90;;;;;;6213195;23;20011;-33
2023/06/29 09:37:14;;;;;;;29.08;22.40;;;23.80;99.90;;;;;;6213009;23;20016;-33
2023/06/29 09:39:58;;;;;;;31.75;23.30;;;23.70;99.90;;;;;;6213228;23;20020;-33
2023/06/29 09:42:26;;;;;;;50.63;26.35;;;23.60;99.90;;;;;;6185480;23;20017;-32
2023/06/29 09:44:52;;;;;;;42.28;25.25;;;23.60;99.90;;;;;;6213655;23;20009;-32
2023/06/29 09:47:19;;;;;;;28.55;22.58;;;23.60;99.90;;;;;;6213149;23;20091;-33
2023/06/29 09:49:48;;;;;;;28.52;23.15;;;23.60;99.90;;;;;;6213243;23;20009;-33
2023/06/29 09:52:15;;;;;;;25.80;22.23;;;23.40;99.90;;;;;;6212810;23;20091;-33
2023/06/29 09:54:42;;;;;;;28.13;22.75;;;23.30;99.90;;;;;;6212583;23;20335;-32
2023/06/29 09:57:11;;;;;;;31.63;22.00;;;23.20;99.90;;;;;;6212571;23;20352;-32
2023/06/29 09:59:41;;;;;;;31.45;23.40;;;23.10;99.90;;;;;;6212420;23;20091;-32
2023/06/29 10:02:08;;;;;;;29.20;22.95;;;23.00;99.90;;;;;;6212039;23;20019;-33
2023/06/29 10:04:39;;;;;;;29.10;23.67;;;22.90;99.90;;;;;;6212570;23;20079;-32
2023/06/29 10:07:12;;;;;;;27.92;23.88;;;22.80;99.90;;;;;;6212629;23;20013;-32
2023/06/29 10:09:41;;;;;;;30.80;23.40;;;22.70;99.90;;;;;;6212028;23;20009;-32
2023/06/29 10:12:10;;;;;;;27.20;22.45;;;22.60;99.90;;;;;;6212340;23;20060;-32
2023/06/29 10:14:38;;;;;;;31.50;24.35;;;22.60;99.90;;;;;;6212641;23;20015;-32
2023/06/29 10:17:11;;;;;;;32.05;23.02;;;22.50;99.90;;;;;;6212100;23;20020;-32
2023/06/29 10:19:40;;;;;;;28.48;23.48;;;22.40;99.90;;;;;;6212538;23;20443;-32
2023/06/29 10:22:10;;;;;;;28.92;23.65;;;22.40;99.90;;;;;;6216029;22;20004;-87
2023/06/29 10:24:53;;;;;;;32.15;24.13;;;22.30;99.90;;;;;;6214425;23;20009;-87
2023/06/29 10:27:25;;;;;;;29.33;23.70;;;22.20;99.90;;;;;;6211562;23;20043;-87
2023/06/29 10:29:50;;;;;;;31.45;23.50;;;22.20;99.90;;;;;;6185775;23;20051;-88
2023/06/29 10:32:37;;;;;;;43.22;25.92;;;22.00;99.90;;;;;;6188504;23;20433;-87
2023/06/29 10:35:07;;;;;;;32.80;24.35;;;22.00;99.90;;;;;;6188691;23;20012;-87
2023/06/29 10:37:44;;;;;;;31.30;24.92;;;22.00;99.90;;;;;;6213963;23;20016;-87
2023/06/29 10:40:21;;;;;;;33.90;25.85;;;22.00;99.90;;;;;;6213274;23;20031;-87
2023/06/29 10:42:49;;;;;;;29.70;24.70;;;22.00;99.90;;;;;;6187815;23;20043;-86
2023/06/29 10:45:17;;;;;;;30.85;23.75;;;22.00;99.90;;;;;;6215144;23;20016;-87
2023/06/29 10:47:45;;;;;;;34.00;23.55;;;22.10;99.90;;;;;;6212181;23;20034;-87
2023/06/29 10:50:10;;;;;;;35.97;25.92;;;22.10;99.90;;;;;;6211952;23;20079;-86
2023/06/29 10:52:43;;;;;;;32.45;25.65;;;22.20;99.90;;;;;;6185746;23;20016;-86
2023/06/29 10:55:15;;;;;;;30.23;24.33;;;22.20;99.90;;;;;;6211345;23;20016;-86
2023/06/29 10:57:51;;;;;;;35.90;25.70;;;22.40;99.90;;;;;;6211174;23;20014;-87
2023/06/29 11:00:17;;;;;;;32.75;25.60;;;22.50;99.90;;;;;;6211253;23;20008;-86
2023/06/29 11:02:46;;;;;;;34.08;26.23;;;22.60;99.90;;;;;;6185531;23;20015;-87
2023/06/29 11:05:16;;;;;;;33.55;25.77;;;22.80;99.90;;;;;;6211336;23;20361;-87
2023/06/29 11:07:47;;;;;;;35.40;27.60;;;23.20;99.90;;;;;;6214338;23;20149;-86
2023/06/29 11:10:13;;;;;;;33.60;26.30;;;23.50;99.90;;;;;;6241835;23;20020;-87
2023/06/29 11:12:40;;;;;;;36.03;27.50;;;23.80;99.90;;;;;;6213829;23;20023;-87
2023/06/29 11:15:12;;;;;;;32.95;26.42;;;24.10;99.90;;;;;;6215091;23;20009;-86
2023/06/29 11:17:45;;;;;;;34.08;27.70;;;24.20;99.90;;;;;;6214546;23;20012;-86
2023/06/29 11:20:15;;;;;;;38.05;27.95;;;24.30;99.90;;;;;;6215185;23;20012;-86
2023/06/29 11:22:42;;;;;;;32.25;26.83;;;24.40;99.90;;;;;;6213881;23;20095;-86
2023/06/29 11:25:12;;;;;;;33.92;27.33;;;24.60;99.90;;;;;;6215155;23;20019;-87
2023/06/29 11:27:38;;;;;;;26.55;23.27;;;24.90;99.90;;;;;;6189326;23;20008;-86
2023/06/29 11:30:06;;;;;;;25.17;20.83;;;25.20;99.90;;;;;;6214888;23;20016;-86
2023/06/29 11:32:33;;;;;;;25.27;20.65;;;25.40;99.90;;;;;;6188983;23;20012;-87
2023/06/29 11:35:02;;;;;;;23.42;20.50;;;25.40;99.90;;;;;;6189867;23;20442;-86
2023/06/29 11:37:29;;;;;;;24.13;20.65;;;25.70;99.90;;;;;;6214246;23;20043;-86
2023/06/29 11:39:54;;;;;;;24.45;19.88;;;26.10;99.90;;;;;;6214815;23;20043;-87
2023/06/29 11:42:22;;;;;;;21.83;19.13;;;26.40;99.90;;;;;;6213841;23;20039;-87
2023/06/29 11:45:09;;;;;;;24.23;20.92;;;26.70;99.90;;;;;;6214182;23;20065;-86
2023/06/29 11:47:35;;;;;;;23.73;20.20;;;26.80;99.90;;;;;;6214272;23;20008;-86
2023/06/29 11:50:03;;;;;;;22.00;19.42;;;26.80;99.90;;;;;;6214623;23;20013;-86
2023/06/29 11:52:31;;;;;;;23.10;20.63;;;27.00;99.90;;;;;;6213809;23;20019;-87
2023/06/29 11:55:06;;;;;;;22.30;19.88;;;27.20;99.90;;;;;;6215975;23;20078;-87
2023/06/29 11:57:39;;;;;;;23.73;20.83;;;27.50;99.90;;;;;;6189692;23;20018;-87
2023/06/29 12:00:16;;;;;;;21.15;18.85;;;27.60;99.90;;;;;;6214712;23;20016;-87
2023/06/29 12:02:42;;;;;;;23.15;20.67;;;28.00;99.90;;;;;;6216277;23;20012;-86
2023/06/29 12:05:08;;;;;;;21.15;18.95;;;28.30;99.90;;;;;;6216718;23;20012;-86
2023/06/29 12:07:42;;;;;;;23.33;19.13;;;28.50;99.90;;;;;;6190774;23;20015;-86
2023/06/29 12:10:11;;;;;;;21.73;19.42;;;28.90;99.90;;;;;;6191480;23;20024;-86
2023/06/29 12:12:43;;;;;;;23.20;19.55;;;29.10;99.90;;;;;;6215726;23;20012;-86
2023/06/29 12:15:16;;;;;;;25.80;20.83;;;28.80;99.90;;;;;;6216786;23;20012;-86
2023/06/29 12:17:43;;;;;;;23.15;19.83;;;28.50;99.90;;;;;;6191525;23;20016;-86
2023/06/29 12:20:23;;;;;;;23.40;18.67;;;28.20;99.90;;;;;;6191371;23;20454;-86
2023/06/29 12:22:50;;;;;;;20.13;18.05;;;27.90;99.90;;;;;;6215884;23;20020;-86
2023/06/29 12:25:18;;;;;;;21.60;18.30;;;27.50;99.90;;;;;;6216421;23;20360;-86
2023/06/29 12:27:45;;;;;;;23.38;19.73;;;27.20;99.90;;;;;;6216426;23;20059;-87